createdAt,value
2023-05-04T00:27:48.007Z,0
2023-05-04T00:32:57.844Z,0
2023-05-04T00:38:14.413Z,0
2023-05-04T00:43:29.763Z,0
2023-05-04T00:48:46.330Z,0
2023-05-04T00:54:02.917Z,0
2023-05-04T00:59:18.613Z,0
2023-05-04T01:04:35.943Z,0
2023-05-04T01:09:52.897Z,0
2023-05-04T01:15:08.723Z,0
2023-05-04T01:20:26.861Z,0
2023-05-04T01:25:43.631Z,0
2023-05-04T01:31:03.129Z,0
2023-05-04T01:36:19.681Z,0
2023-05-04T01:41:35.949Z,0
2023-05-04T01:46:53.379Z,0
2023-05-04T01:52:10.627Z,0
2023-05-04T01:57:28.088Z,0
2023-05-04T02:02:46.052Z,0
2023-05-04T02:08:02.651Z,0
2023-05-04T02:13:20.565Z,0
2023-05-04T02:18:37.298Z,0
2023-05-04T02:23:54.329Z,0
2023-05-04T02:29:09.862Z,0
2023-05-04T02:34:26.830Z,0
2023-05-04T02:39:43.466Z,0
2023-05-04T02:44:59.446Z,0
2023-05-04T02:50:16.486Z,0
2023-05-04T02:55:33.058Z,0
2023-05-04T03:00:49.035Z,0
2023-05-04T03:06:05.378Z,0
2023-05-04T03:11:22.497Z,0
2023-05-04T03:16:08.995Z,0
2023-05-04T03:21:24.264Z,0
2023-05-04T03:26:39.878Z,1
2023-05-04T04:04:13.955Z,83
2023-05-04T04:09:23.690Z,117
2023-05-04T04:14:39.454Z,158
2023-05-04T04:19:55.988Z,199
2023-05-04T04:25:11.757Z,245
2023-05-04T04:30:29.057Z,300
2023-05-04T04:35:45.198Z,365
2023-05-04T04:41:01.242Z,415
2023-05-04T04:46:19.601Z,429
2023-05-04T04:51:34.927Z,436
2023-05-04T04:56:50.727Z,489
2023-05-04T05:02:09.679Z,561
2023-05-04T05:07:26.905Z,604
2023-05-04T05:12:42.314Z,639
2023-05-04T05:17:59.571Z,719
2023-05-04T05:23:17.195Z,771
2023-05-04T05:28:33.407Z,862
2023-05-04T05:34:07.156Z,939
2023-05-04T05:39:24.124Z,1031
2023-05-04T05:44:40.117Z,1113
2023-05-04T05:49:56.263Z,1269
2023-05-04T05:55:12.116Z,1491
2023-05-04T06:00:32.471Z,1622
2023-05-04T06:05:48.099Z,1721
2023-05-04T06:11:03.610Z,1832
2023-05-04T06:16:20.254Z,1931
2023-05-04T06:21:35.758Z,1999
2023-05-04T06:26:52.978Z,2049
2023-05-04T06:32:09.398Z,2035
2023-05-04T06:37:25.245Z,1982
2023-05-04T06:42:42.792Z,1876
2023-05-04T06:47:58.953Z,1828
2023-05-04T07:30:22.314Z,2141
2023-05-04T07:40:48.076Z,2283
2023-05-04T07:46:05.688Z,2303
2023-05-04T07:51:24.240Z,2391
2023-05-04T07:56:42.237Z,2378
2023-05-04T08:01:59.325Z,2383
2023-05-04T08:07:14.872Z,2439
2023-05-04T08:12:31.099Z,2430
2023-05-04T08:17:46.509Z,2499
2023-05-04T08:23:04.727Z,2608
2023-05-04T08:28:22.265Z,2720
2023-05-04T08:33:40.421Z,2739
2023-05-04T08:38:56.072Z,2749
2023-05-04T08:44:12.435Z,2647
2023-05-04T08:49:29.853Z,2536
2023-05-04T08:54:46.828Z,2517
2023-05-04T09:00:03.307Z,2540
2023-05-04T09:05:18.903Z,2369
2023-05-04T09:10:35.042Z,2629
2023-05-04T09:15:54.741Z,2661
2023-05-04T09:21:11.330Z,2877
2023-05-04T09:26:27.140Z,2750
2023-05-04T09:31:44.033Z,2720
2023-05-04T09:36:59.486Z,2703
2023-05-04T09:42:15.124Z,2827
2023-05-04T09:47:31.010Z,2872
2023-05-04T09:52:48.230Z,2999
2023-05-04T09:58:04.540Z,2949
2023-05-04T10:03:20.719Z,2959
2023-05-04T10:08:36.095Z,2941
2023-05-04T10:13:52.087Z,2850
2023-05-04T10:19:07.494Z,2801
2023-05-04T10:24:24.407Z,2796
2023-05-04T10:29:41.281Z,2884
2023-05-04T10:34:57.510Z,2849
2023-05-04T10:40:14.630Z,2890
2023-05-04T10:45:30.463Z,2920
2023-05-04T10:50:48.248Z,3004
2023-05-04T10:56:05.245Z,2981
2023-05-04T11:01:21.888Z,2933
2023-05-04T11:06:38.259Z,2944
2023-05-04T11:11:56.115Z,2884
2023-05-04T11:17:28.991Z,2773
2023-05-04T11:22:31.158Z,2665
2023-05-04T11:27:50.475Z,2616
2023-05-04T11:33:04.689Z,2549
2023-05-04T11:38:21.566Z,2426
2023-05-04T11:43:37.841Z,2446
2023-05-04T11:48:55.693Z,2459
2023-05-04T11:54:11.363Z,2456
2023-05-04T11:59:27.624Z,2509
2023-05-04T12:04:43.080Z,2556
2023-05-04T12:09:59.720Z,2518
2023-05-04T12:15:15.428Z,2503
2023-05-04T12:20:32.562Z,2509
2023-05-04T12:36:29.626Z,2546
2023-05-04T12:41:39.540Z,2571
2023-05-04T12:47:00.042Z,2606
2023-05-04T12:52:15.354Z,2553
2023-05-04T12:57:32.554Z,2714
2023-05-04T13:02:47.873Z,2958
2023-05-04T13:08:03.453Z,3000
2023-05-04T13:13:20.451Z,2883
2023-05-04T13:18:35.316Z,3116
2023-05-04T13:23:50.975Z,3219
2023-05-04T13:29:06.667Z,3210
2023-05-04T13:34:22.931Z,3444
2023-05-04T13:39:39.453Z,3869
2023-05-04T13:44:57.492Z,4068
2023-05-04T13:50:13.290Z,4278
2023-05-04T13:55:31.398Z,4556
2023-05-04T14:00:50.452Z,5000
2023-05-04T14:06:06.987Z,4961
2023-05-04T14:11:24.449Z,5081
2023-05-04T14:16:42.614Z,5562
2023-05-04T14:21:59.283Z,5633
2023-05-04T14:27:16.452Z,6095
2023-05-04T14:32:33.496Z,6730
2023-05-04T14:37:50.033Z,5871
2023-05-04T14:43:07.373Z,5201
2023-05-04T14:48:24.560Z,6615
2023-05-04T14:53:40.022Z,6161
2023-05-04T14:58:56.124Z,6336
2023-05-04T15:04:11.525Z,7747
2023-05-04T15:09:27.194Z,6280
2023-05-04T15:14:43.922Z,5896
2023-05-04T15:20:00.251Z,5753
2023-05-04T15:25:16.980Z,5557
2023-05-04T15:30:33.646Z,5800
2023-05-04T15:35:50.567Z,6119
2023-05-04T15:41:07.476Z,5330
2023-05-04T16:28:41.156Z,5994
2023-05-04T16:33:50.331Z,7547
2023-05-04T16:39:07.632Z,7200
2023-05-04T16:44:24.635Z,7479
2023-05-04T16:49:41.620Z,7181
2023-05-04T16:54:58.641Z,6895
2023-05-04T17:00:14.807Z,7536
2023-05-04T17:05:31.698Z,7312
2023-05-04T17:10:46.558Z,6494
2023-05-04T17:16:02.800Z,6575
2023-05-04T17:21:18.517Z,6243
2023-05-04T17:26:35.078Z,7364
2023-05-04T17:31:52.386Z,7322
2023-05-04T17:37:09.528Z,8124
2023-05-04T17:42:25.880Z,6665
2023-05-04T17:47:44.846Z,7123
2023-05-04T17:53:00.967Z,2736
2023-05-04T17:58:17.125Z,2547
2023-05-04T18:03:34.314Z,2098
2023-05-04T18:08:50.810Z,1839
2023-05-04T18:14:08.302Z,1683
2023-05-04T18:19:25.637Z,1516
2023-05-04T18:24:42.010Z,1804
2023-05-04T18:29:58.809Z,3501
2023-05-04T18:35:16.924Z,1035
2023-05-04T18:40:35.940Z,707
2023-05-04T18:45:53.192Z,496
2023-05-04T18:51:11.149Z,321
2023-05-04T18:56:26.983Z,213
2023-05-04T19:01:43.613Z,145
2023-05-04T19:06:59.281Z,84
2023-05-04T19:12:16.163Z,36
2023-05-04T19:17:32.449Z,19
2023-05-04T19:22:49.530Z,10
2023-05-04T19:59:57.629Z,0
2023-05-04T20:05:07.498Z,0
2023-05-04T20:10:24.741Z,0
2023-05-04T20:15:40.935Z,0
2023-05-04T20:20:58.196Z,0
2023-05-04T20:26:14.171Z,0
2023-05-04T20:31:30.956Z,0
2023-05-04T20:36:48.083Z,0
2023-05-04T20:42:12.062Z,0
2023-05-04T20:47:28.054Z,0
2023-05-04T20:52:47.542Z,0
2023-05-04T20:58:04.241Z,0
2023-05-04T21:03:21.329Z,0
2023-05-04T21:08:36.720Z,0
2023-05-04T21:13:53.192Z,0
2023-05-04T21:19:09.526Z,0
2023-05-04T21:24:25.465Z,0
2023-05-04T21:29:42.468Z,0
2023-05-04T21:34:58.638Z,0
2023-05-04T21:40:14.869Z,0
2023-05-04T21:45:33.600Z,0
2023-05-04T21:50:49.833Z,0
2023-05-04T21:56:06.706Z,0
2023-05-04T22:01:22.817Z,0
2023-05-04T22:06:38.338Z,0
2023-05-04T22:11:54.315Z,0
2023-05-04T22:17:11.638Z,0
2023-05-04T22:22:27.792Z,0
2023-05-04T22:27:46.755Z,0
2023-05-04T22:33:03.528Z,0
2023-05-04T22:38:19.412Z,0
2023-05-04T22:43:35.054Z,0
2023-05-04T22:48:50.823Z,0
2023-05-04T22:54:06.761Z,0
2023-05-04T22:59:22.425Z,0
2023-05-04T23:04:39.872Z,0
2023-05-04T23:09:57.440Z,0
2023-05-04T23:15:13.467Z,0
2023-05-04T23:20:30.802Z,0
2023-05-04T23:25:48.199Z,0
2023-05-04T23:31:05.215Z,0
2023-05-04T23:36:25.215Z,0
2023-05-04T23:41:42.436Z,0
2023-05-04T23:46:58.481Z,0
2023-05-04T23:52:15.848Z,0
2023-05-04T23:57:32.716Z,0
